createdAt,value
2023-01-19T00:00:50.071Z,11.20
2023-01-19T00:03:17.930Z,9.65
2023-01-19T00:05:45.070Z,8.73
2023-01-19T00:08:14.929Z,8.70
2023-01-19T00:10:47.511Z,8.02
2023-01-19T00:13:15.473Z,6.53
2023-01-19T00:15:43.237Z,6.75
2023-01-19T00:18:11.141Z,7.03
2023-01-19T00:20:39.219Z,7.15
2023-01-19T00:23:07.877Z,6.18
2023-01-19T00:25:34.774Z,6.90
2023-01-19T00:28:01.885Z,7.60
2023-01-19T00:30:29.294Z,7.10
2023-01-19T00:32:56.282Z,8.15
2023-01-19T00:35:22.838Z,6.60
2023-01-19T00:37:49.407Z,5.43
2023-01-19T00:40:16.442Z,5.25
2023-01-19T00:42:44.538Z,5.20
2023-01-19T00:45:13.551Z,5.90
2023-01-19T00:47:40.443Z,4.97
2023-01-19T00:50:11.843Z,4.93
2023-01-19T00:52:40.160Z,5.20
2023-01-19T00:55:08.190Z,5.07
2023-01-19T00:57:34.940Z,5.38
2023-01-19T01:00:01.783Z,5.75
2023-01-19T01:02:28.659Z,7.28
2023-01-19T01:04:56.736Z,7.07
2023-01-19T01:07:24.597Z,7.93
2023-01-19T01:09:51.531Z,7.38
2023-01-19T01:12:18.219Z,5.65
2023-01-19T01:14:44.982Z,5.20
2023-01-19T01:17:14.244Z,4.60
2023-01-19T01:19:41.591Z,5.53
2023-01-19T01:22:09.800Z,5.32
2023-01-19T01:24:36.429Z,4.88
2023-01-19T01:27:03.083Z,4.63
2023-01-19T01:29:29.848Z,5.00
2023-01-19T01:31:56.515Z,5.50
2023-01-19T01:34:23.111Z,6.40
2023-01-19T01:36:49.761Z,5.60
2023-01-19T01:39:16.302Z,5.25
2023-01-19T01:41:42.926Z,4.68
2023-01-19T01:44:49.648Z,5.10
2023-01-19T01:47:54.676Z,4.70
2023-01-19T01:50:24.131Z,5.80
2023-01-19T01:53:12.367Z,5.03
2023-01-19T01:55:49.038Z,5.75
2023-01-19T01:58:16.605Z,4.68
2023-01-19T02:01:15.230Z,5.45
2023-01-19T02:03:42.088Z,5.70
2023-01-19T02:06:10.165Z,4.90
2023-01-19T02:09:07.662Z,5.18
2023-01-19T02:11:54.407Z,5.03
2023-01-19T02:14:21.571Z,5.45
2023-01-19T02:16:48.353Z,4.88
2023-01-19T02:19:25.347Z,5.13
2023-01-19T02:21:58.552Z,5.13
2023-01-19T02:24:25.748Z,4.80
2023-01-19T02:26:52.515Z,4.90
2023-01-19T02:29:22.646Z,5.43
2023-01-19T02:31:49.382Z,5.47
2023-01-19T02:34:18.842Z,5.28
2023-01-19T02:36:56.483Z,4.60
2023-01-19T02:39:47.751Z,3.65
2023-01-19T02:42:37.783Z,4.10
2023-01-19T02:45:06.861Z,3.80
2023-01-19T02:47:43.696Z,3.67
2023-01-19T02:50:45.908Z,3.78
2023-01-19T02:53:56.839Z,3.13
2023-01-19T02:56:44.474Z,3.30
2023-01-19T02:59:16.782Z,3.10
2023-01-19T03:01:58.413Z,2.97
2023-01-19T03:04:43.855Z,2.88
2023-01-19T03:07:21.111Z,3.15
2023-01-19T03:09:47.663Z,2.78
2023-01-19T03:12:52.659Z,2.63
2023-01-19T03:15:31.937Z,2.67
2023-01-19T03:18:01.571Z,2.53
2023-01-19T03:20:29.036Z,2.50
2023-01-19T03:23:03.841Z,2.58
2023-01-19T03:25:35.198Z,3.03
2023-01-19T03:28:03.550Z,2.80
2023-01-19T03:30:37.289Z,2.70
2023-01-19T03:33:09.290Z,2.45
2023-01-19T03:35:41.863Z,2.70
2023-01-19T03:38:14.929Z,3.08
2023-01-19T03:40:41.887Z,2.63
2023-01-19T03:43:09.628Z,2.53
2023-01-19T03:45:39.084Z,2.60
2023-01-19T03:48:06.570Z,2.92
2023-01-19T03:50:33.372Z,3.20
2023-01-19T03:53:11.986Z,3.17
2023-01-19T03:55:41.903Z,3.28
2023-01-19T03:58:08.724Z,3.17
2023-01-19T04:00:36.554Z,3.35
2023-01-19T04:03:07.156Z,3.13
2023-01-19T04:05:33.860Z,3.38
2023-01-19T04:08:00.702Z,3.20
2023-01-19T04:10:27.420Z,3.60
2023-01-19T04:13:01.741Z,3.35
2023-01-19T04:15:29.421Z,3.13
2023-01-19T04:18:00.624Z,3.80
2023-01-19T04:20:28.244Z,3.58
2023-01-19T04:22:58.685Z,4.13
2023-01-19T04:25:25.411Z,4.20
2023-01-19T04:27:53.241Z,4.10
2023-01-19T04:30:20.001Z,4.10
2023-01-19T04:32:46.798Z,3.67
2023-01-19T04:35:13.382Z,3.33
2023-01-19T04:37:40.176Z,3.60
2023-01-19T04:40:07.660Z,3.15
2023-01-19T04:42:34.258Z,3.40
2023-01-19T04:45:00.849Z,2.70
2023-01-19T04:47:27.438Z,3.42
2023-01-19T04:49:54.083Z,3.72
2023-01-19T04:52:20.610Z,3.40
2023-01-19T04:54:47.677Z,4.13
2023-01-19T04:57:14.236Z,2.78
2023-01-19T04:59:40.902Z,3.10
2023-01-19T05:02:07.568Z,3.50
2023-01-19T05:04:34.231Z,2.20
2023-01-19T05:07:00.827Z,2.92
2023-01-19T05:09:27.411Z,2.60
2023-01-19T05:11:54.197Z,2.50
2023-01-19T05:14:21.109Z,3.03
2023-01-19T05:16:47.662Z,2.70
2023-01-19T05:19:14.298Z,3.15
2023-01-19T05:21:40.834Z,3.38
2023-01-19T05:24:07.869Z,2.28
2023-01-19T05:26:34.503Z,2.83
2023-01-19T05:29:01.193Z,2.80
2023-01-19T05:31:27.832Z,2.35
2023-01-19T05:33:54.490Z,2.00
2023-01-19T05:36:21.047Z,2.13
2023-01-19T05:38:47.725Z,2.05
2023-01-19T05:41:14.258Z,2.00
2023-01-19T05:43:40.868Z,2.00
2023-01-19T05:46:07.397Z,1.98
2023-01-19T05:48:33.989Z,2.08
2023-01-19T05:51:01.549Z,1.95
2023-01-19T05:53:28.847Z,2.40
2023-01-19T05:56:00.340Z,1.88
2023-01-19T05:58:26.905Z,2.63
2023-01-19T06:00:53.512Z,2.10
2023-01-19T06:03:20.208Z,2.75
2023-01-19T06:05:46.889Z,2.65
2023-01-19T06:08:14.253Z,2.33
2023-01-19T06:10:40.969Z,2.88
2023-01-19T06:13:09.730Z,2.50
2023-01-19T06:15:37.462Z,2.65
2023-01-19T06:18:04.382Z,2.10
2023-01-19T06:20:31.065Z,2.47
2023-01-19T06:22:58.043Z,2.90
2023-01-19T06:25:25.979Z,2.65
2023-01-19T06:27:52.579Z,3.30
2023-01-19T06:30:19.409Z,3.13
2023-01-19T06:32:46.062Z,3.60
2023-01-19T06:35:12.735Z,2.88
2023-01-19T06:37:39.768Z,2.70
2023-01-19T06:40:07.567Z,3.20
2023-01-19T06:42:34.484Z,3.28
2023-01-19T06:45:01.130Z,4.15
2023-01-19T06:47:27.771Z,3.38
2023-01-19T06:49:54.318Z,3.70
2023-01-19T06:52:21.111Z,4.07
2023-01-19T06:54:47.947Z,3.55
2023-01-19T06:57:16.483Z,3.40
2023-01-19T06:59:43.995Z,2.67
2023-01-19T07:02:26.624Z,2.45
2023-01-19T07:04:56.072Z,2.30
2023-01-19T07:07:22.624Z,2.72
2023-01-19T07:09:49.215Z,3.30
2023-01-19T07:12:20.344Z,2.85
2023-01-19T07:14:46.874Z,2.47
2023-01-19T07:17:13.839Z,2.35
2023-01-19T07:19:40.436Z,2.55
2023-01-19T07:22:07.103Z,2.20
2023-01-19T07:24:34.919Z,2.42
2023-01-19T07:27:01.604Z,2.17
2023-01-19T07:29:28.219Z,2.20
2023-01-19T07:31:54.964Z,3.00
2023-01-19T07:34:21.896Z,3.00
2023-01-19T07:36:48.659Z,2.92
2023-01-19T07:39:15.725Z,2.50
2023-01-19T07:41:42.511Z,2.67
2023-01-19T07:44:09.621Z,2.65
2023-01-19T07:46:36.193Z,2.97
2023-01-19T07:49:02.742Z,2.88
2023-01-19T07:51:29.351Z,2.60
2023-01-19T07:53:55.865Z,3.63
2023-01-19T07:56:24.236Z,2.78
2023-01-19T07:58:52.379Z,2.60
2023-01-19T08:01:19.205Z,2.75
2023-01-19T08:03:47.983Z,2.40
2023-01-19T08:06:24.430Z,2.80
2023-01-19T08:08:51.187Z,3.40
2023-01-19T08:11:17.786Z,6.45
2023-01-19T08:13:44.403Z,10.10
2023-01-19T08:16:10.993Z,11.00
2023-01-19T08:18:37.643Z,12.50
2023-01-19T08:21:04.810Z,15.13
2023-01-19T08:23:31.752Z,11.77
2023-01-19T08:25:58.345Z,5.03
2023-01-19T08:28:25.904Z,2.95
2023-01-19T08:30:55.472Z,3.35
2023-01-19T08:33:24.255Z,2.60
2023-01-19T08:35:54.342Z,2.60
2023-01-19T08:38:21.077Z,2.70
2023-01-19T08:40:48.689Z,2.80
2023-01-19T08:43:17.055Z,2.90
2023-01-19T08:45:49.436Z,2.97
2023-01-19T08:48:19.580Z,2.75
2023-01-19T08:50:47.380Z,3.50
2023-01-19T08:53:14.622Z,3.78
2023-01-19T08:55:41.748Z,3.53
2023-01-19T08:58:11.466Z,2.67
2023-01-19T09:00:39.648Z,2.65
2023-01-19T09:03:08.823Z,3.17
2023-01-19T09:05:38.725Z,2.60
2023-01-19T09:08:09.156Z,3.08
2023-01-19T09:10:37.846Z,2.78
2023-01-19T09:13:10.916Z,2.70
2023-01-19T09:15:38.462Z,2.10
2023-01-19T09:18:07.989Z,2.70
2023-01-19T09:20:36.185Z,2.33
2023-01-19T09:23:02.917Z,2.38
2023-01-19T09:25:29.809Z,2.55
2023-01-19T09:27:56.468Z,2.40
2023-01-19T09:30:23.243Z,2.10
2023-01-19T09:32:49.841Z,2.08
2023-01-19T09:35:16.578Z,2.13
2023-01-19T09:37:47.408Z,2.65
2023-01-19T09:40:17.129Z,3.05
2023-01-19T09:42:48.485Z,2.60
2023-01-19T09:45:17.744Z,2.80
2023-01-19T09:47:46.904Z,3.25
2023-01-19T09:50:26.479Z,3.08
2023-01-19T09:53:01.383Z,3.15
2023-01-19T09:55:29.439Z,7.45
2023-01-19T09:57:56.177Z,3.30
2023-01-19T10:00:24.319Z,3.33
2023-01-19T10:03:02.769Z,2.60
2023-01-19T10:05:51.813Z,2.30
2023-01-19T10:08:43.983Z,2.67
2023-01-19T10:11:51.638Z,1.92
2023-01-19T10:14:28.177Z,2.20
2023-01-19T10:17:18.998Z,2.17
2023-01-19T10:19:49.812Z,2.35
2023-01-19T10:22:23.052Z,2.30
2023-01-19T10:24:57.006Z,3.08
2023-01-19T10:27:28.448Z,4.78
2023-01-19T10:29:56.655Z,3.20
2023-01-19T10:32:26.548Z,2.00
2023-01-19T10:34:54.855Z,1.90
2023-01-19T10:37:24.378Z,1.73
2023-01-19T10:40:09.043Z,2.10
2023-01-19T10:42:37.175Z,2.13
2023-01-19T10:45:15.218Z,1.60
2023-01-19T10:47:43.956Z,1.80
2023-01-19T10:50:30.641Z,1.88
2023-01-19T10:53:06.278Z,1.73
2023-01-19T10:55:38.213Z,1.80
2023-01-19T10:58:06.929Z,1.80
2023-01-19T11:00:43.362Z,2.00
2023-01-19T11:03:23.944Z,1.85
2023-01-19T11:05:51.162Z,2.00
2023-01-19T11:08:29.624Z,2.20
2023-01-19T11:11:04.402Z,2.05
2023-01-19T11:13:32.169Z,1.80
2023-01-19T11:16:05.293Z,1.92
2023-01-19T11:18:35.528Z,2.47
2023-01-19T11:21:09.284Z,1.92
2023-01-19T11:23:43.011Z,1.50
2023-01-19T11:26:18.057Z,1.63
2023-01-19T11:28:49.348Z,1.80
2023-01-19T11:31:16.030Z,1.80
2023-01-19T11:33:45.394Z,1.80
2023-01-19T11:36:18.818Z,2.10
2023-01-19T11:38:48.914Z,1.77
2023-01-19T11:41:21.675Z,1.77
2023-01-19T11:43:51.814Z,1.90
2023-01-19T11:46:19.221Z,1.85
2023-01-19T11:49:02.002Z,1.90
2023-01-19T11:51:37.121Z,2.13
2023-01-19T11:54:19.179Z,2.20
2023-01-19T11:56:48.394Z,2.03
2023-01-19T11:59:15.091Z,1.88
2023-01-19T12:01:49.571Z,1.92
2023-01-19T12:04:30.640Z,2.10
2023-01-19T12:07:03.138Z,2.33
2023-01-19T12:09:36.085Z,2.10
2023-01-19T12:12:06.873Z,2.20
2023-01-19T12:15:04.360Z,2.10
2023-01-19T12:17:37.622Z,2.75
2023-01-19T12:20:28.517Z,2.22
2023-01-19T12:23:07.228Z,3.05
2023-01-19T12:26:04.758Z,4.07
2023-01-19T12:28:33.914Z,3.33
2023-01-19T12:31:01.648Z,3.28
2023-01-19T12:33:29.029Z,2.90
2023-01-19T12:36:04.216Z,2.95
2023-01-19T12:38:40.587Z,2.83
2023-01-19T12:41:27.382Z,3.15
2023-01-19T12:44:12.372Z,3.00
2023-01-19T12:46:40.593Z,3.10
2023-01-19T12:49:15.118Z,3.50
2023-01-19T12:51:41.979Z,3.20
2023-01-19T12:54:21.327Z,3.50
2023-01-19T12:56:48.134Z,2.88
2023-01-19T12:59:25.565Z,3.00
2023-01-19T13:02:20.282Z,3.33
2023-01-19T13:05:24.694Z,3.00
2023-01-19T13:08:06.704Z,3.10
2023-01-19T13:11:10.579Z,3.75
2023-01-19T13:13:39.925Z,3.67
2023-01-19T13:16:18.671Z,3.50
2023-01-19T13:19:06.210Z,4.25
2023-01-19T13:21:44.708Z,9.95
2023-01-19T13:24:16.971Z,18.90
2023-01-19T13:26:49.623Z,6.95
2023-01-19T13:29:33.833Z,4.38
2023-01-19T13:32:06.787Z,5.47
2023-01-19T13:34:42.425Z,6.50
2023-01-19T13:37:18.178Z,5.13
2023-01-19T13:39:48.929Z,3.35
2023-01-19T13:42:35.104Z,4.90
2023-01-19T13:45:26.281Z,3.50
2023-01-19T13:47:55.351Z,5.60
2023-01-19T13:50:28.445Z,9.40
2023-01-19T13:52:56.612Z,7.32
2023-01-19T13:55:24.078Z,7.15
2023-01-19T13:57:51.548Z,5.78
2023-01-19T14:00:29.941Z,5.03
2023-01-19T14:03:00.660Z,4.43
2023-01-19T14:05:37.636Z,4.03
2023-01-19T14:08:13.569Z,3.70
2023-01-19T14:10:47.181Z,4.80
2023-01-19T14:13:26.300Z,3.72
2023-01-19T14:15:56.904Z,3.60
2023-01-19T14:18:30.076Z,3.70
2023-01-19T14:21:11.752Z,4.00
2023-01-19T14:23:43.312Z,4.30
2023-01-19T14:26:37.866Z,4.00
2023-01-19T14:29:33.146Z,4.13
2023-01-19T14:32:19.730Z,4.22
2023-01-19T14:35:04.282Z,4.53
2023-01-19T14:37:35.958Z,4.38
2023-01-19T14:40:08.921Z,4.15
2023-01-19T14:42:39.217Z,4.30
2023-01-19T14:45:14.861Z,4.38
2023-01-19T14:47:44.409Z,4.47
2023-01-19T14:50:32.270Z,6.25
2023-01-19T14:53:01.871Z,6.38
2023-01-19T14:55:56.720Z,7.50
2023-01-19T14:58:26.305Z,6.90
2023-01-19T15:00:56.269Z,6.85
2023-01-19T15:03:34.881Z,6.28
2023-01-19T15:06:14.400Z,5.63
2023-01-19T15:08:41.329Z,5.72
2023-01-19T15:11:18.067Z,4.80
2023-01-19T15:13:45.158Z,5.07
2023-01-19T15:16:11.865Z,4.97
2023-01-19T15:18:38.889Z,4.90
2023-01-19T15:21:05.718Z,4.90
2023-01-19T15:23:32.795Z,4.70
2023-01-19T15:26:04.788Z,5.55
2023-01-19T15:28:31.836Z,4.80
2023-01-19T15:30:59.779Z,6.20
2023-01-19T15:33:30.499Z,6.22
2023-01-19T15:35:57.434Z,5.82
2023-01-19T15:38:24.106Z,7.43
2023-01-19T15:40:51.697Z,6.43
2023-01-19T15:43:18.857Z,7.95
2023-01-19T15:45:50.926Z,8.05
2023-01-19T15:48:19.902Z,6.82
2023-01-19T15:50:47.742Z,6.53
2023-01-19T15:53:17.102Z,6.38
2023-01-19T15:55:44.570Z,6.20
2023-01-19T15:58:14.021Z,5.78
2023-01-19T16:00:41.631Z,5.70
2023-01-19T16:03:08.274Z,5.22
2023-01-19T16:05:42.890Z,6.20
2023-01-19T16:08:13.367Z,6.10
2023-01-19T16:10:43.180Z,5.10
2023-01-19T16:13:11.799Z,7.53
2023-01-19T16:15:42.204Z,5.32
2023-01-19T16:18:08.948Z,6.82
2023-01-19T16:20:35.744Z,7.65
2023-01-19T16:23:14.436Z,5.13
2023-01-19T16:25:41.906Z,5.20
2023-01-19T16:28:09.025Z,4.68
2023-01-19T16:30:35.858Z,6.10
2023-01-19T16:33:02.456Z,5.80
2023-01-19T16:35:29.055Z,4.93
2023-01-19T16:37:55.780Z,4.90
2023-01-19T16:40:22.373Z,5.63
2023-01-19T16:42:48.971Z,5.80
2023-01-19T16:45:15.639Z,5.82
2023-01-19T16:47:43.128Z,5.90
2023-01-19T16:50:13.114Z,6.20
2023-01-19T16:52:39.905Z,7.22
2023-01-19T16:55:09.393Z,6.50
2023-01-19T16:57:36.951Z,7.35
2023-01-19T17:00:04.243Z,8.60
2023-01-19T17:02:30.994Z,8.82
2023-01-19T17:05:00.168Z,13.32
2023-01-19T17:07:29.864Z,11.63
2023-01-19T17:09:56.447Z,11.25
2023-01-19T17:12:23.143Z,12.10
2023-01-19T17:14:49.785Z,11.80
2023-01-19T17:17:16.569Z,11.13
2023-01-19T17:19:45.044Z,11.82
2023-01-19T17:22:12.839Z,11.40
2023-01-19T17:24:42.341Z,9.65
2023-01-19T17:27:10.346Z,6.88
2023-01-19T17:29:36.936Z,7.28
2023-01-19T17:32:04.063Z,7.63
2023-01-19T17:34:31.028Z,8.13
2023-01-19T17:37:02.903Z,9.45
2023-01-19T17:39:30.136Z,8.85
2023-01-19T17:41:59.237Z,7.85
2023-01-19T17:44:25.949Z,8.05
2023-01-19T17:46:52.675Z,8.25
2023-01-19T17:49:19.386Z,8.20
2023-01-19T17:51:46.242Z,7.80
2023-01-19T17:54:14.023Z,8.48
2023-01-19T17:56:41.329Z,8.82
2023-01-19T17:59:08.517Z,9.65
2023-01-19T18:01:40.444Z,8.32
2023-01-19T18:04:08.994Z,11.63
2023-01-19T18:06:41.499Z,9.63
2023-01-19T18:09:15.869Z,9.00
2023-01-19T18:11:44.807Z,12.40
2023-01-19T18:14:11.439Z,9.85
2023-01-19T18:16:38.045Z,16.23
2023-01-19T18:19:04.854Z,10.77
2023-01-19T18:21:31.386Z,11.27
2023-01-19T18:24:01.184Z,11.00
2023-01-19T18:26:28.651Z,9.65
2023-01-19T18:28:57.107Z,9.50
2023-01-19T18:31:24.350Z,11.88
2023-01-19T18:33:50.908Z,11.27
2023-01-19T18:36:17.804Z,9.90
2023-01-19T18:38:45.312Z,10.07
2023-01-19T18:41:14.651Z,10.45
2023-01-19T18:43:41.774Z,9.35
2023-01-19T18:46:19.365Z,11.93
2023-01-19T18:49:12.563Z,12.32
2023-01-19T18:51:41.513Z,11.73
2023-01-19T18:54:24.412Z,11.50
2023-01-19T18:56:59.834Z,13.18
2023-01-19T18:59:39.559Z,11.85
2023-01-19T19:02:14.234Z,12.85
2023-01-19T19:04:50.677Z,14.18
2023-01-19T19:07:18.642Z,14.20
2023-01-19T19:09:45.256Z,13.23
2023-01-19T19:12:11.853Z,14.05
2023-01-19T19:14:38.576Z,12.77
2023-01-19T19:17:05.262Z,13.27
2023-01-19T19:19:31.783Z,14.23
2023-01-19T19:21:58.396Z,13.20
2023-01-19T19:24:25.303Z,13.65
2023-01-19T19:26:51.841Z,14.00
2023-01-19T19:29:18.453Z,12.90
2023-01-19T19:31:46.157Z,13.77
2023-01-19T19:34:12.934Z,11.95
2023-01-19T19:36:40.304Z,12.63
2023-01-19T19:39:07.045Z,14.23
2023-01-19T19:41:33.718Z,13.90
2023-01-19T19:44:00.332Z,13.07
2023-01-19T19:46:28.752Z,11.93
2023-01-19T19:48:55.463Z,14.00
2023-01-19T19:51:25.665Z,12.25
2023-01-19T19:53:54.591Z,12.98
2023-01-19T19:56:23.173Z,15.48
2023-01-19T19:58:51.602Z,13.80
2023-01-19T20:01:27.594Z,16.25
2023-01-19T20:03:56.769Z,14.93
2023-01-19T20:06:26.147Z,13.57
2023-01-19T20:08:55.620Z,13.77
2023-01-19T20:11:25.457Z,11.80
2023-01-19T20:13:52.302Z,12.25
2023-01-19T20:16:21.670Z,12.35
2023-01-19T20:18:54.255Z,12.77
2023-01-19T20:21:29.423Z,16.60
2023-01-19T20:24:00.150Z,25.73
2023-01-19T20:26:33.222Z,25.13
2023-01-19T20:29:03.117Z,23.23
2023-01-19T20:31:32.416Z,21.40
2023-01-19T20:34:00.918Z,20.27
2023-01-19T20:36:29.061Z,19.75
2023-01-19T20:38:57.143Z,19.60
2023-01-19T20:41:26.062Z,15.88
2023-01-19T20:43:53.131Z,14.32
2023-01-19T20:46:19.775Z,14.15
2023-01-19T20:48:50.803Z,12.07
2023-01-19T20:51:18.836Z,11.27
2023-01-19T20:53:45.842Z,11.30
2023-01-19T20:56:14.626Z,10.98
2023-01-19T20:58:41.258Z,12.18
2023-01-19T21:01:13.887Z,12.00
2023-01-19T21:03:42.371Z,11.55
2023-01-19T21:06:09.925Z,11.18
2023-01-19T21:08:37.250Z,10.45
2023-01-19T21:11:04.803Z,11.15
2023-01-19T21:13:31.719Z,10.48
2023-01-19T21:15:59.307Z,11.82
2023-01-19T21:18:27.874Z,9.23
2023-01-19T21:20:57.345Z,7.10
2023-01-19T21:23:25.490Z,7.28
2023-01-19T21:25:54.473Z,8.00
2023-01-19T21:28:22.782Z,6.38
2023-01-19T21:30:50.654Z,5.57
2023-01-19T21:33:17.987Z,4.97
2023-01-19T21:35:51.027Z,5.22
2023-01-19T21:38:17.884Z,3.83
2023-01-19T21:40:44.619Z,2.53
2023-01-19T21:43:13.437Z,2.60
2023-01-19T21:45:43.100Z,3.53
2023-01-19T21:48:10.166Z,3.08
2023-01-19T21:50:36.804Z,2.10
2023-01-19T21:53:05.896Z,2.10
2023-01-19T21:55:33.152Z,2.10
2023-01-19T21:57:59.817Z,1.85
2023-01-19T22:00:29.441Z,1.50
2023-01-19T22:03:04.299Z,1.20
2023-01-19T22:05:36.733Z,2.40
2023-01-19T22:08:04.972Z,3.80
2023-01-19T22:10:32.046Z,2.72
2023-01-19T22:12:58.771Z,1.13
2023-01-19T22:15:25.331Z,1.55
2023-01-19T22:17:51.947Z,2.00
2023-01-19T22:20:18.729Z,7.82
2023-01-19T22:22:45.364Z,3.63
2023-01-19T22:25:12.403Z,1.70
2023-01-19T22:27:39.142Z,3.08
2023-01-19T22:30:06.365Z,2.58
2023-01-19T22:32:33.012Z,3.05
2023-01-19T22:34:59.558Z,2.13
2023-01-19T22:37:26.179Z,1.65
2023-01-19T22:39:53.201Z,3.67
2023-01-19T22:42:19.791Z,3.53
2023-01-19T22:44:46.883Z,5.15
2023-01-19T22:47:14.200Z,1.38
2023-01-19T22:49:40.831Z,1.58
2023-01-19T22:52:07.704Z,5.15
2023-01-19T22:54:34.274Z,1.88
2023-01-19T22:57:00.979Z,2.28
2023-01-19T22:59:27.679Z,3.67
2023-01-19T23:01:54.498Z,2.40
2023-01-19T23:04:21.146Z,6.88
2023-01-19T23:06:50.429Z,5.50
2023-01-19T23:09:18.216Z,3.25
2023-01-19T23:11:50.251Z,2.50
2023-01-19T23:14:20.491Z,1.35
2023-01-19T23:16:48.046Z,1.60
2023-01-19T23:19:16.922Z,2.00
2023-01-19T23:21:44.128Z,2.17
2023-01-19T23:24:10.778Z,2.65
2023-01-19T23:26:38.400Z,2.30
2023-01-19T23:29:08.057Z,4.18
2023-01-19T23:31:36.714Z,2.20
2023-01-19T23:34:09.291Z,7.78
2023-01-19T23:36:38.329Z,2.67
2023-01-19T23:39:11.486Z,3.30
2023-01-19T23:41:38.171Z,1.60
2023-01-19T23:44:05.014Z,2.53
2023-01-19T23:46:32.020Z,2.53
2023-01-19T23:48:58.602Z,2.03
2023-01-19T23:51:27.882Z,2.80
2023-01-19T23:53:55.773Z,2.90
2023-01-19T23:56:25.545Z,1.73
2023-01-19T23:58:55.365Z,2.20
